createdAt,value
2019-04-03T00:00:10.569Z,4.63
2019-04-03T00:02:17.886Z,4.60
2019-04-03T00:04:24.625Z,4.58
2019-04-03T00:06:31.449Z,4.58
2019-04-03T00:08:38.211Z,4.58
2019-04-03T00:10:45.939Z,4.54
2019-04-03T00:12:52.848Z,4.55
2019-04-03T00:14:59.681Z,4.53
2019-04-03T00:17:06.411Z,4.60
2019-04-03T00:19:13.153Z,4.62
2019-04-03T00:21:20.321Z,4.57
2019-04-03T00:23:28.234Z,4.55
2019-04-03T00:25:34.898Z,4.55
2019-04-03T00:27:41.680Z,4.52
2019-04-03T00:29:48.430Z,4.47
2019-04-03T00:31:55.173Z,4.47
2019-04-03T00:34:01.955Z,4.47
2019-04-03T00:36:08.890Z,4.40
2019-04-03T00:38:15.678Z,4.41
2019-04-03T00:40:24.697Z,4.46
2019-04-03T00:42:31.587Z,4.47
2019-04-03T00:44:39.524Z,4.41
2019-04-03T00:46:46.296Z,4.47
2019-04-03T00:48:55.399Z,4.48
2019-04-03T00:51:02.808Z,4.47
2019-04-03T00:53:09.600Z,4.47
2019-04-03T00:55:16.368Z,4.46
2019-04-03T00:57:23.143Z,4.46
2019-04-03T00:59:29.913Z,4.44
2019-04-03T01:01:36.658Z,4.43
2019-04-03T01:03:43.674Z,4.48
2019-04-03T01:05:50.545Z,4.46
2019-04-03T01:07:59.186Z,4.47
2019-04-03T01:10:06.967Z,4.43
2019-04-03T01:12:13.782Z,4.38
2019-04-03T01:14:20.546Z,4.39
2019-04-03T01:16:27.469Z,4.34
2019-04-03T01:18:35.124Z,4.39
2019-04-03T01:20:42.326Z,4.40
2019-04-03T01:22:49.443Z,4.37
2019-04-03T01:24:56.276Z,4.40
2019-04-03T01:27:03.061Z,4.39
2019-04-03T01:29:10.642Z,4.39
2019-04-03T01:31:18.281Z,4.40
2019-04-03T01:33:25.035Z,4.34
2019-04-03T01:35:31.874Z,4.36
2019-04-03T01:37:38.670Z,4.37
2019-04-03T01:39:45.554Z,4.40
2019-04-03T01:41:52.354Z,4.44
2019-04-03T01:43:59.092Z,4.43
2019-04-03T01:46:05.803Z,4.44
2019-04-03T01:48:12.674Z,4.38
2019-04-03T01:50:19.377Z,4.36
2019-04-03T01:52:26.142Z,4.37
2019-04-03T01:54:33.730Z,4.41
2019-04-03T01:56:40.845Z,4.46
2019-04-03T01:58:47.771Z,4.44
2019-04-03T02:00:54.556Z,4.47
2019-04-03T02:03:02.125Z,4.45
2019-04-03T02:05:12.435Z,4.42
2019-04-03T02:07:19.110Z,4.43
2019-04-03T02:09:26.063Z,4.47
2019-04-03T02:11:32.809Z,4.45
2019-04-03T02:13:39.649Z,4.46
2019-04-03T02:15:46.363Z,4.47
2019-04-03T02:17:55.121Z,4.47
2019-04-03T02:20:01.556Z,4.49
2019-04-03T02:22:08.355Z,4.48
2019-04-03T02:24:15.184Z,4.42
2019-04-03T02:26:22.000Z,4.38
2019-04-03T02:28:34.189Z,4.42
2019-04-03T02:30:42.563Z,4.42
2019-04-03T02:32:48.776Z,4.34
2019-04-03T02:34:56.342Z,4.30
2019-04-03T02:37:03.389Z,4.32
2019-04-03T02:39:10.111Z,4.29
2019-04-03T02:41:17.723Z,4.24
2019-04-03T02:43:24.474Z,4.24
2019-04-03T02:45:31.216Z,4.19
2019-04-03T02:47:37.974Z,4.27
2019-04-03T02:49:45.084Z,4.28
2019-04-03T02:51:53.365Z,4.25
2019-04-03T02:54:02.267Z,4.31
2019-04-03T02:56:11.637Z,4.32
2019-04-03T02:58:21.455Z,4.25
2019-04-03T03:00:26.017Z,4.26
2019-04-03T03:02:32.823Z,4.24
2019-04-03T03:04:40.868Z,4.20
2019-04-03T03:06:48.180Z,4.17
2019-04-03T03:08:55.334Z,4.17
2019-04-03T03:11:04.495Z,4.18
2019-04-03T03:13:11.656Z,4.22
2019-04-03T03:15:18.817Z,4.19
2019-04-03T03:17:25.868Z,4.23
2019-04-03T03:19:33.978Z,4.22
2019-04-03T03:21:43.881Z,4.14
2019-04-03T03:23:50.590Z,4.15
2019-04-03T03:25:58.976Z,4.19
2019-04-03T03:28:06.144Z,4.20
2019-04-03T03:30:32.986Z,4.16
2019-04-03T03:32:31.413Z,4.12
2019-04-03T03:34:47.623Z,4.12
2019-04-03T03:36:40.376Z,4.12
2019-04-03T03:38:48.912Z,4.08
2019-04-03T03:40:55.989Z,4.09
2019-04-03T03:43:05.827Z,4.12
2019-04-03T03:45:13.367Z,4.07
2019-04-03T03:47:20.689Z,4.03
2019-04-03T03:49:31.116Z,4.04
2019-04-03T03:51:38.491Z,4.05
2019-04-03T03:53:47.576Z,4.11
2019-04-03T03:55:58.697Z,4.03
2019-04-03T03:58:04.286Z,4.05
2019-04-03T04:00:11.327Z,4.03
2019-04-03T04:02:18.344Z,4.02
2019-04-03T04:04:25.184Z,4.04
2019-04-03T04:06:35.389Z,4.00
2019-04-03T04:08:44.626Z,4.00
2019-04-03T04:10:49.640Z,3.97
2019-04-03T04:12:57.785Z,4.00
2019-04-03T04:15:05.724Z,3.99
2019-04-03T04:17:16.903Z,3.99
2019-04-03T04:19:23.975Z,3.95
2019-04-03T04:21:32.570Z,3.93
2019-04-03T04:23:39.714Z,3.91
2019-04-03T04:25:46.989Z,3.92
2019-04-03T04:27:53.725Z,3.94
2019-04-03T04:30:00.629Z,3.94
2019-04-03T04:32:07.312Z,3.96
2019-04-03T04:34:14.102Z,3.96
2019-04-03T04:36:23.602Z,4.01
2019-04-03T04:38:29.083Z,4.05
2019-04-03T04:40:38.594Z,4.06
2019-04-03T04:42:45.479Z,4.07
2019-04-03T04:44:54.126Z,4.14
2019-04-03T04:47:01.517Z,4.20
2019-04-03T04:49:08.496Z,4.26
2019-04-03T04:51:15.272Z,4.29
2019-04-03T04:53:22.204Z,4.34
2019-04-03T04:55:31.551Z,4.39
2019-04-03T04:57:41.003Z,4.42
2019-04-03T04:59:47.931Z,4.48
2019-04-03T05:01:54.656Z,4.54
2019-04-03T05:04:01.615Z,4.60
2019-04-03T05:06:08.370Z,4.72
2019-04-03T05:08:15.122Z,4.83
2019-04-03T05:10:22.079Z,5.10
2019-04-03T05:12:28.849Z,5.93
2019-04-03T05:14:35.936Z,7.24
2019-04-03T05:16:42.739Z,8.01
2019-04-03T05:18:49.479Z,8.47
2019-04-03T05:20:56.315Z,8.61
2019-04-03T05:23:03.273Z,8.99
2019-04-03T05:25:10.073Z,9.09
2019-04-03T05:27:16.869Z,9.63
2019-04-03T05:29:24.741Z,9.46
2019-04-03T05:31:31.497Z,10.32
2019-04-03T05:33:41.148Z,10.27
2019-04-03T05:35:46.962Z,11.43
2019-04-03T05:37:53.798Z,11.30
2019-04-03T05:40:00.716Z,10.75
2019-04-03T05:42:07.458Z,11.31
2019-04-03T05:44:14.324Z,11.28
2019-04-03T05:46:21.183Z,11.90
2019-04-03T05:48:27.931Z,12.32
2019-04-03T05:50:36.681Z,10.96
2019-04-03T05:52:43.622Z,11.61
2019-04-03T05:54:50.414Z,12.81
2019-04-03T05:56:57.178Z,11.73
2019-04-03T05:59:03.965Z,12.36
2019-04-03T06:01:11.802Z,13.44
2019-04-03T06:03:18.993Z,14.06
2019-04-03T06:05:25.790Z,13.78
2019-04-03T06:07:33.563Z,13.20
2019-04-03T06:09:41.409Z,12.67
2019-04-03T06:11:48.216Z,13.17
2019-04-03T06:13:54.964Z,13.93
2019-04-03T06:16:01.751Z,13.27
2019-04-03T06:18:08.515Z,13.05
2019-04-03T06:20:15.360Z,13.13
2019-04-03T06:22:22.229Z,13.99
2019-04-03T06:24:29.086Z,15.52
2019-04-03T06:26:37.796Z,15.73
2019-04-03T06:28:46.398Z,16.67
2019-04-03T06:30:55.611Z,15.56
2019-04-03T06:33:02.154Z,14.32
2019-04-03T06:35:09.198Z,14.99
2019-04-03T06:37:17.613Z,15.62
2019-04-03T06:39:30.484Z,15.31
2019-04-03T06:41:33.941Z,15.94
2019-04-03T06:43:40.809Z,17.07
2019-04-03T06:45:47.997Z,15.95
2019-04-03T06:47:55.181Z,15.47
2019-04-03T06:50:02.244Z,16.94
2019-04-03T06:52:09.210Z,18.51
2019-04-03T06:54:15.994Z,18.30
2019-04-03T06:56:22.797Z,15.04
2019-04-03T06:58:38.038Z,14.94
2019-04-03T07:00:39.434Z,17.84
2019-04-03T07:02:46.328Z,16.62
2019-04-03T07:04:53.335Z,17.34
2019-04-03T07:07:00.143Z,17.16
2019-04-03T07:09:21.042Z,16.87
2019-04-03T07:11:23.166Z,16.22
2019-04-03T07:13:25.622Z,17.55
2019-04-03T07:15:32.480Z,16.49
2019-04-03T07:17:39.303Z,18.21
2019-04-03T07:19:46.284Z,19.96
2019-04-03T07:21:56.081Z,22.10
2019-04-03T07:24:17.667Z,22.17
2019-04-03T07:26:27.126Z,21.93
2019-04-03T07:28:34.102Z,21.86
2019-04-03T07:30:43.734Z,22.71
2019-04-03T07:32:50.502Z,17.89
2019-04-03T07:34:57.268Z,17.01
2019-04-03T07:37:04.188Z,16.70
2019-04-03T07:39:11.202Z,16.83
2019-04-03T07:41:18.088Z,16.57
2019-04-03T07:43:27.164Z,15.82
2019-04-03T07:45:33.603Z,15.42
2019-04-03T07:47:40.570Z,13.55
2019-04-03T07:49:47.504Z,12.35
2019-04-03T07:51:54.243Z,12.01
2019-04-03T07:54:04.240Z,11.74
2019-04-03T07:56:11.779Z,11.70
2019-04-03T07:58:18.688Z,11.36
2019-04-03T08:00:25.465Z,11.28
2019-04-03T08:02:33.666Z,11.31
2019-04-03T08:04:40.671Z,11.39
2019-04-03T08:06:47.448Z,11.54
2019-04-03T08:09:06.520Z,11.52
2019-04-03T08:11:03.051Z,11.66
2019-04-03T08:13:09.865Z,11.77
2019-04-03T08:15:17.007Z,11.57
2019-04-03T08:17:23.661Z,11.16
2019-04-03T08:19:30.432Z,10.99
2019-04-03T08:21:37.200Z,11.37
2019-04-03T08:23:43.955Z,11.44
2019-04-03T08:25:53.852Z,11.45
2019-04-03T08:28:00.142Z,11.54
2019-04-03T08:30:09.461Z,11.64
2019-04-03T08:32:17.435Z,11.54
2019-04-03T08:34:24.141Z,11.47
2019-04-03T08:36:30.882Z,11.57
2019-04-03T08:38:37.718Z,11.39
2019-04-03T08:40:44.783Z,11.60
2019-04-03T08:42:51.529Z,11.70
2019-04-03T08:44:58.331Z,12.07
2019-04-03T08:47:05.023Z,11.70
2019-04-03T08:49:11.895Z,11.85
2019-04-03T08:51:18.766Z,11.82
2019-04-03T08:53:25.535Z,11.71
2019-04-03T08:55:32.302Z,11.82
2019-04-03T08:57:39.266Z,12.03
2019-04-03T08:59:46.132Z,12.10
2019-04-03T09:01:55.113Z,12.13
2019-04-03T09:04:01.352Z,12.21
2019-04-03T09:06:07.995Z,12.25
2019-04-03T09:08:14.767Z,12.15
2019-04-03T09:10:21.526Z,12.07
2019-04-03T09:12:28.380Z,12.11
2019-04-03T09:14:35.122Z,12.05
2019-04-03T09:16:43.456Z,12.12
2019-04-03T09:18:50.202Z,12.22
2019-04-03T09:20:56.984Z,12.39
2019-04-03T09:23:03.691Z,12.47
2019-04-03T09:25:13.249Z,12.45
2019-04-03T09:27:19.300Z,12.57
2019-04-03T09:29:26.335Z,12.33
2019-04-03T09:31:33.228Z,12.27
2019-04-03T09:33:42.733Z,12.19
2019-04-03T09:35:49.507Z,12.24
2019-04-03T09:37:56.267Z,12.38
2019-04-03T09:40:03.005Z,12.37
2019-04-03T09:42:09.747Z,12.30
2019-04-03T09:44:16.418Z,12.03
2019-04-03T09:46:23.215Z,12.11
2019-04-03T09:48:30.372Z,12.36
2019-04-03T09:50:37.033Z,12.37
2019-04-03T09:52:49.099Z,12.64
2019-04-03T09:54:52.289Z,12.60
2019-04-03T09:57:04.451Z,12.41
2019-04-03T09:59:08.042Z,12.44
2019-04-03T10:01:17.994Z,12.68
2019-04-03T10:03:23.954Z,12.85
2019-04-03T10:05:32.715Z,12.82
2019-04-03T10:07:39.238Z,12.60
2019-04-03T10:09:46.165Z,12.61
2019-04-03T10:11:52.883Z,12.53
2019-04-03T10:13:59.642Z,12.42
2019-04-03T10:16:06.402Z,12.52
2019-04-03T10:18:13.124Z,12.59
2019-04-03T10:20:19.979Z,12.58
2019-04-03T10:22:26.745Z,12.70
2019-04-03T10:24:33.401Z,12.72
2019-04-03T10:26:40.930Z,12.73
2019-04-03T10:28:48.354Z,12.81
2019-04-03T10:30:55.329Z,12.81
2019-04-03T10:33:02.043Z,12.90
2019-04-03T10:35:09.450Z,12.75
2019-04-03T10:37:16.128Z,12.85
2019-04-03T10:39:22.904Z,13.02
2019-04-03T10:41:29.745Z,13.02
2019-04-03T10:43:37.650Z,13.20
2019-04-03T10:45:44.557Z,13.14
2019-04-03T10:47:51.235Z,13.07
2019-04-03T10:49:57.925Z,13.00
2019-04-03T10:52:05.155Z,12.94
2019-04-03T10:54:11.870Z,12.82
2019-04-03T10:56:19.158Z,12.79
2019-04-03T10:58:26.207Z,12.82
2019-04-03T11:00:33.994Z,12.95
2019-04-03T11:02:40.864Z,12.89
2019-04-03T11:04:47.610Z,12.92
2019-04-03T11:06:54.641Z,13.01
2019-04-03T11:09:12.496Z,13.09
2019-04-03T11:11:23.506Z,13.09
2019-04-03T11:13:29.362Z,13.07
2019-04-03T11:15:36.128Z,13.02
2019-04-03T11:17:42.974Z,13.00
2019-04-03T11:19:49.644Z,12.85
2019-04-03T11:21:57.432Z,13.01
2019-04-03T11:24:04.400Z,13.10
2019-04-03T11:26:12.813Z,13.26
2019-04-03T11:28:19.706Z,13.37
2019-04-03T11:30:26.883Z,13.38
2019-04-03T11:32:34.033Z,13.49
2019-04-03T11:34:40.776Z,13.43
2019-04-03T11:36:47.560Z,13.34
2019-04-03T11:39:06.551Z,13.45
2019-04-03T11:41:13.122Z,13.54
2019-04-03T11:43:11.212Z,13.66
2019-04-03T11:45:18.761Z,13.56
2019-04-03T11:47:25.717Z,13.58
2019-04-03T11:49:32.483Z,13.50
2019-04-03T11:51:39.110Z,13.54
2019-04-03T11:53:46.014Z,13.57
2019-04-03T11:55:53.072Z,13.37
2019-04-03T11:57:59.861Z,13.30
2019-04-03T12:00:14.374Z,13.37
2019-04-03T12:02:22.077Z,13.33
2019-04-03T12:04:29.105Z,13.44
2019-04-03T12:06:36.383Z,13.51
2019-04-03T12:08:45.028Z,13.50
2019-04-03T12:10:51.854Z,13.48
2019-04-03T12:12:58.768Z,13.53
2019-04-03T12:15:09.197Z,13.33
2019-04-03T12:17:15.976Z,13.33
2019-04-03T12:19:22.749Z,13.52
2019-04-03T12:21:29.518Z,13.74
2019-04-03T12:23:38.737Z,13.85
2019-04-03T12:25:44.800Z,14.05
2019-04-03T12:27:51.588Z,13.99
2019-04-03T12:29:58.481Z,13.94
2019-04-03T12:32:07.797Z,13.94
2019-04-03T12:34:14.076Z,13.94
2019-04-03T12:36:21.405Z,13.91
2019-04-03T12:38:28.396Z,13.89
2019-04-03T12:40:35.095Z,13.79
2019-04-03T12:42:42.206Z,13.71
2019-04-03T12:44:49.071Z,13.71
2019-04-03T12:46:55.843Z,13.90
2019-04-03T12:49:02.601Z,14.12
2019-04-03T12:51:09.372Z,13.88
2019-04-03T12:53:17.235Z,13.87
2019-04-03T12:55:25.935Z,13.68
2019-04-03T12:57:33.783Z,13.81
2019-04-03T12:59:40.868Z,13.70
2019-04-03T13:01:49.742Z,13.71
2019-04-03T13:03:57.329Z,13.76
2019-04-03T13:06:04.100Z,13.78
2019-04-03T13:08:10.994Z,13.73
2019-04-03T13:10:22.293Z,13.90
2019-04-03T13:12:29.118Z,13.98
2019-04-03T13:14:35.933Z,13.81
2019-04-03T13:16:46.591Z,13.63
2019-04-03T13:18:55.313Z,13.69
2019-04-03T13:21:02.192Z,13.77
2019-04-03T13:23:08.939Z,13.78
2019-04-03T13:25:16.099Z,13.78
2019-04-03T13:27:22.951Z,13.93
2019-04-03T13:29:29.760Z,14.02
2019-04-03T13:31:36.626Z,14.00
2019-04-03T13:33:43.647Z,13.94
2019-04-03T13:35:50.336Z,14.02
2019-04-03T13:37:57.234Z,14.00
2019-04-03T13:40:06.307Z,13.99
2019-04-03T13:42:14.651Z,13.84
2019-04-03T13:44:21.499Z,13.91
2019-04-03T13:46:28.271Z,13.97
2019-04-03T13:48:35.172Z,14.04
2019-04-03T13:50:41.957Z,13.83
2019-04-03T13:52:50.453Z,13.85
2019-04-03T13:54:58.287Z,13.63
2019-04-03T13:57:05.760Z,13.59
2019-04-03T13:59:12.421Z,13.56
2019-04-03T14:01:19.660Z,13.67
2019-04-03T14:03:27.824Z,13.74
2019-04-03T14:05:34.931Z,13.75
2019-04-03T14:07:42.557Z,13.85
2019-04-03T14:09:53.719Z,13.92
2019-04-03T14:12:00.531Z,13.98
2019-04-03T14:14:06.538Z,13.69
2019-04-03T14:16:19.877Z,13.69
2019-04-03T14:18:21.794Z,13.74
2019-04-03T14:20:29.888Z,13.76
2019-04-03T14:22:36.724Z,13.82
2019-04-03T14:24:47.475Z,13.79
2019-04-03T14:26:51.916Z,13.72
2019-04-03T14:28:59.004Z,13.66
2019-04-03T14:31:07.188Z,13.71
2019-04-03T14:33:14.024Z,13.67
2019-04-03T14:37:29.567Z,13.56
2019-04-03T14:39:37.174Z,13.55
2019-04-03T14:41:45.180Z,13.53
2019-04-03T14:43:52.088Z,13.43
2019-04-03T14:45:58.815Z,13.39
2019-04-03T14:48:06.027Z,13.42
2019-04-03T14:50:13.815Z,13.48
2019-04-03T14:52:20.781Z,13.47
2019-04-03T14:54:30.349Z,13.42
2019-04-03T14:56:40.098Z,13.34
2019-04-03T14:58:47.161Z,13.32
2019-04-03T15:00:54.305Z,13.30
2019-04-03T15:03:03.919Z,13.30
2019-04-03T15:05:09.715Z,13.31
2019-04-03T15:07:17.821Z,13.32
2019-04-03T15:09:26.975Z,13.30
2019-04-03T15:11:34.894Z,13.29
2019-04-03T15:13:42.100Z,13.27
2019-04-03T15:15:48.836Z,13.22
2019-04-03T15:17:55.602Z,13.20
2019-04-03T15:20:02.553Z,13.16
2019-04-03T15:22:09.349Z,13.11
2019-04-03T15:24:16.439Z,13.08
2019-04-03T15:26:23.918Z,13.07
2019-04-03T15:28:31.867Z,13.02
2019-04-03T15:30:43.400Z,12.98
2019-04-03T15:32:51.449Z,12.96
2019-04-03T15:35:00.268Z,12.96
2019-04-03T15:37:08.917Z,12.95
2019-04-03T15:39:17.168Z,12.93
2019-04-03T15:41:23.863Z,12.89
2019-04-03T15:43:33.833Z,12.85
2019-04-03T15:45:41.298Z,12.80
2019-04-03T15:47:48.459Z,12.73
2019-04-03T15:49:58.348Z,12.72
2019-04-03T15:52:03.799Z,12.66
2019-04-03T15:54:10.543Z,12.63
2019-04-03T15:56:18.315Z,12.60
2019-04-03T15:58:26.643Z,12.54
2019-04-03T16:00:35.763Z,12.53
2019-04-03T16:02:45.122Z,12.49
2019-04-03T16:04:50.552Z,12.44
2019-04-03T16:06:57.673Z,12.41
2019-04-03T16:09:07.979Z,12.35
2019-04-03T16:11:14.966Z,12.35
2019-04-03T16:13:24.662Z,12.31
2019-04-03T16:15:34.316Z,12.28
2019-04-03T16:17:42.295Z,12.26
2019-04-03T16:19:49.073Z,12.21
2019-04-03T16:21:57.667Z,12.17
2019-04-03T16:24:04.329Z,12.12
2019-04-03T16:26:11.155Z,12.06
2019-04-03T16:28:17.927Z,11.97
2019-04-03T16:30:25.254Z,11.92
2019-04-03T16:32:32.132Z,11.93
2019-04-03T16:34:41.105Z,11.89
2019-04-03T16:36:48.745Z,11.81
2019-04-03T16:38:56.137Z,11.73
2019-04-03T16:41:03.531Z,11.69
2019-04-03T16:43:10.386Z,11.65
2019-04-03T16:45:17.144Z,11.60
2019-04-03T16:47:25.460Z,11.52
2019-04-03T16:49:32.567Z,11.47
2019-04-03T16:51:39.352Z,11.43
2019-04-03T16:53:46.184Z,11.43
2019-04-03T16:55:53.083Z,11.41
2019-04-03T16:57:59.857Z,11.39
2019-04-03T17:00:10.415Z,11.33
2019-04-03T17:02:18.930Z,11.23
2019-04-03T17:04:46.848Z,11.14
2019-04-03T17:06:53.778Z,11.04
2019-04-03T17:09:00.523Z,11.05
2019-04-03T17:11:11.293Z,10.98
2019-04-03T17:13:18.857Z,10.88
2019-04-03T17:15:26.836Z,10.90
2019-04-03T17:17:33.886Z,10.89
2019-04-03T17:19:41.007Z,10.86
2019-04-03T17:21:48.148Z,10.84
2019-04-03T17:23:54.997Z,10.82
2019-04-03T17:26:01.755Z,10.83
2019-04-03T17:28:10.190Z,10.76
2019-04-03T17:30:18.347Z,10.76
2019-04-03T17:32:29.934Z,10.70
2019-04-03T17:34:39.797Z,10.64
2019-04-03T17:36:45.773Z,10.59
2019-04-03T17:38:52.844Z,10.57
2019-04-03T17:40:59.745Z,10.64
2019-04-03T17:43:06.471Z,10.52
2019-04-03T17:45:16.335Z,10.47
2019-04-03T17:47:21.427Z,10.48
2019-04-03T17:49:28.487Z,10.41
2019-04-03T17:51:38.965Z,10.48
2019-04-03T17:53:45.725Z,10.41
2019-04-03T17:55:52.563Z,10.39
2019-04-03T17:58:00.404Z,10.38
2019-04-03T18:00:20.631Z,10.34
2019-04-03T18:02:26.159Z,10.32
2019-04-03T18:04:33.883Z,10.28
2019-04-03T18:06:40.649Z,10.25
2019-04-03T18:08:47.414Z,10.18
2019-04-03T18:10:54.854Z,10.11
2019-04-03T18:13:01.630Z,10.14
2019-04-03T18:15:13.657Z,10.07
2019-04-03T18:17:20.388Z,10.06
2019-04-03T18:19:36.906Z,10.07
2019-04-03T18:21:35.658Z,10.02
2019-04-03T18:23:42.420Z,9.98
2019-04-03T18:25:50.547Z,9.95
2019-04-03T18:27:57.289Z,9.92
2019-04-03T18:30:11.790Z,9.91
2019-04-03T18:32:18.895Z,9.84
2019-04-03T18:34:25.662Z,9.81
2019-04-03T18:36:33.015Z,9.80
2019-04-03T18:38:40.904Z,9.80
2019-04-03T18:40:47.668Z,9.77
2019-04-03T18:42:54.337Z,9.79
2019-04-03T18:45:01.086Z,9.88
2019-04-03T18:47:07.866Z,9.83
2019-04-03T18:49:16.155Z,9.75
2019-04-03T18:51:24.383Z,9.77
2019-04-03T18:53:31.401Z,9.76
2019-04-03T18:55:39.144Z,9.77
2019-04-03T18:57:49.560Z,9.72
2019-04-03T18:59:56.479Z,9.68
2019-04-03T19:02:04.373Z,9.65
2019-04-03T19:04:11.141Z,9.72
2019-04-03T19:06:18.013Z,9.69
2019-04-03T19:08:24.868Z,9.61
2019-04-03T19:10:31.660Z,9.62
2019-04-03T19:12:38.612Z,9.58
2019-04-03T19:14:46.767Z,9.53
2019-04-03T19:16:54.991Z,9.58
2019-04-03T19:19:08.304Z,9.46
2019-04-03T19:21:24.627Z,9.53
2019-04-03T19:23:25.080Z,9.50
2019-04-03T19:25:31.840Z,9.44
2019-04-03T19:27:41.452Z,9.53
2019-04-03T19:29:49.500Z,9.55
2019-04-03T19:31:56.256Z,9.57
2019-04-03T19:34:03.288Z,9.54
2019-04-03T19:36:14.428Z,9.51
2019-04-03T19:38:21.147Z,9.55
2019-04-03T19:40:29.214Z,9.50
2019-04-03T19:42:36.087Z,9.49
2019-04-03T19:44:44.882Z,9.48
2019-04-03T19:46:51.965Z,9.44
2019-04-03T19:49:00.210Z,9.41
2019-04-03T19:51:07.149Z,9.37
2019-04-03T19:53:14.129Z,9.35
2019-04-03T19:55:23.345Z,9.36
2019-04-03T19:57:29.809Z,9.28
2019-04-03T19:59:36.762Z,9.26
2019-04-03T20:01:44.776Z,9.16
2019-04-03T20:03:52.159Z,9.14
2019-04-03T20:06:01.662Z,9.09
2019-04-03T20:08:10.343Z,9.08
2019-04-03T20:10:17.937Z,9.04
2019-04-03T20:12:24.908Z,9.00
2019-04-03T20:14:33.606Z,9.07
2019-04-03T20:16:39.909Z,9.06
2019-04-03T20:18:48.293Z,9.10
2019-04-03T20:20:55.064Z,9.06
2019-04-03T20:23:01.859Z,9.04
2019-04-03T20:25:09.491Z,9.02
2019-04-03T20:27:17.447Z,9.00
2019-04-03T20:29:24.218Z,8.96
2019-04-03T20:31:35.468Z,9.02
2019-04-03T20:33:42.346Z,9.01
2019-04-03T20:35:50.297Z,9.04
2019-04-03T20:38:04.194Z,9.05
2019-04-03T20:40:10.420Z,9.01
2019-04-03T20:42:18.283Z,8.89
2019-04-03T20:44:33.283Z,8.85
2019-04-03T20:46:43.353Z,8.79
2019-04-03T20:48:50.999Z,8.76
2019-04-03T20:50:58.221Z,8.72
2019-04-03T20:53:07.227Z,8.74
2019-04-03T20:55:15.047Z,8.68
2019-04-03T20:57:22.248Z,8.67
2019-04-03T20:59:30.377Z,8.63
2019-04-03T21:01:40.064Z,8.62
2019-04-03T21:03:48.222Z,8.59
2019-04-03T21:05:55.097Z,8.60
2019-04-03T21:08:01.845Z,8.56
2019-04-03T21:10:09.923Z,8.52
2019-04-03T21:12:16.777Z,8.53
2019-04-03T21:14:24.334Z,8.55
2019-04-03T21:16:33.419Z,8.52
2019-04-03T21:18:39.526Z,8.47
2019-04-03T21:20:46.257Z,8.42
2019-04-03T21:22:52.992Z,8.37
2019-04-03T21:24:59.748Z,8.33
2019-04-03T21:27:06.878Z,8.35
2019-04-03T21:29:16.870Z,8.33
2019-04-03T21:31:23.974Z,8.27
2019-04-03T21:33:31.757Z,8.30
2019-04-03T21:35:38.500Z,8.26
2019-04-03T21:37:45.273Z,8.22
2019-04-03T21:39:52.016Z,8.25
2019-04-03T21:41:58.756Z,8.14
2019-04-03T21:44:05.550Z,8.19
2019-04-03T21:46:12.299Z,8.12
2019-04-03T21:48:20.305Z,8.07
2019-04-03T21:50:27.011Z,8.10
2019-04-03T21:52:33.752Z,8.02
2019-04-03T21:54:40.444Z,7.99
2019-04-03T21:56:47.153Z,7.96
2019-04-03T21:58:53.916Z,7.92
2019-04-03T22:01:08.292Z,7.92
2019-04-03T22:03:15.060Z,7.85
2019-04-03T22:05:22.995Z,7.85
2019-04-03T22:07:30.233Z,7.82
2019-04-03T22:09:37.029Z,7.73
2019-04-03T22:11:43.768Z,7.79
2019-04-03T22:13:50.558Z,7.78
2019-04-03T22:15:57.338Z,7.76
2019-04-03T22:18:04.080Z,7.77
2019-04-03T22:20:10.936Z,7.72
2019-04-03T22:22:17.615Z,7.71
2019-04-03T22:24:24.363Z,7.64
2019-04-03T22:26:31.092Z,7.59
2019-04-03T22:28:39.263Z,7.52
2019-04-03T22:30:45.937Z,7.51
2019-04-03T22:32:53.958Z,7.48
2019-04-03T22:35:01.621Z,7.44
2019-04-03T22:37:08.389Z,7.42
2019-04-03T22:39:15.050Z,7.41
2019-04-03T22:41:21.822Z,7.38
2019-04-03T22:43:28.560Z,7.34
2019-04-03T22:45:35.307Z,7.28
2019-04-03T22:47:42.004Z,7.29
2019-04-03T22:49:48.783Z,7.33
2019-04-03T22:51:55.528Z,7.30
2019-04-03T22:54:02.231Z,7.28
2019-04-03T22:56:08.985Z,7.25
2019-04-03T22:58:15.742Z,7.29
2019-04-03T23:00:23.882Z,7.27
2019-04-03T23:02:31.816Z,7.24
2019-04-03T23:04:41.886Z,7.23
2019-04-03T23:06:49.389Z,7.19
2019-04-03T23:08:56.068Z,7.17
2019-04-03T23:11:03.338Z,7.14
2019-04-03T23:13:10.186Z,7.11
2019-04-03T23:15:16.949Z,7.13
2019-04-03T23:17:24.346Z,7.08
2019-04-03T23:19:32.488Z,7.05
2019-04-03T23:21:39.437Z,7.07
2019-04-03T23:23:48.239Z,7.04
2019-04-03T23:25:55.149Z,6.99
2019-04-03T23:28:03.042Z,7.05
2019-04-03T23:30:10.960Z,6.96
2019-04-03T23:32:17.836Z,6.96
2019-04-03T23:34:24.830Z,6.91
2019-04-03T23:36:31.573Z,6.89
2019-04-03T23:38:38.336Z,6.86
2019-04-03T23:40:45.103Z,6.87
2019-04-03T23:42:51.845Z,6.87
2019-04-03T23:44:58.721Z,6.90
2019-04-03T23:47:07.072Z,6.89
2019-04-03T23:49:14.163Z,6.86
2019-04-03T23:51:23.345Z,6.81
2019-04-03T23:53:32.123Z,6.83
2019-04-03T23:55:38.573Z,6.84
2019-04-03T23:57:45.350Z,6.83
2019-04-03T23:59:52.036Z,6.78
